sensor_id;sensor_type;location;lat;lon;timestamp;P1;durP1;ratioP1;P2;durP2;ratioP2
9034;SDS011;4552;43.422;24.592;2024-02-04T00:01:52;2.83;;;2.30;;
9034;SDS011;4552;43.422;24.592;2024-02-04T00:04:20;3.53;;;2.70;;
9034;SDS011;4552;43.422;24.592;2024-02-04T00:06:48;2.67;;;2.47;;
9034;SDS011;4552;43.422;24.592;2024-02-04T00:09:15;5.37;;;2.83;;
9034;SDS011;4552;43.422;24.592;2024-02-04T00:11:43;3.23;;;2.70;;
9034;SDS011;4552;43.422;24.592;2024-02-04T00:14:11;2.80;;;2.40;;
9034;SDS011;4552;43.422;24.592;2024-02-04T00:16:38;2.87;;;2.30;;
9034;SDS011;4552;43.422;24.592;2024-02-04T00:19:05;3.47;;;2.73;;
9034;SDS011;4552;43.422;24.592;2024-02-04T00:37:02;2.63;;;2.30;;
9034;SDS011;4552;43.422;24.592;2024-02-04T00:39:30;4.43;;;2.00;;
9034;SDS011;4552;43.422;24.592;2024-02-04T00:41:57;2.80;;;2.40;;
9034;SDS011;4552;43.422;24.592;2024-02-04T00:44:24;3.90;;;2.30;;
9034;SDS011;4552;43.422;24.592;2024-02-04T00:46:51;2.70;;;2.37;;
9034;SDS011;4552;43.422;24.592;2024-02-04T00:52:41;1.90;;;1.80;;
9034;SDS011;4552;43.422;24.592;2024-02-04T00:55:08;4.00;;;2.37;;
9034;SDS011;4552;43.422;24.592;2024-02-04T00:57:35;2.40;;;2.20;;
9034;SDS011;4552;43.422;24.592;2024-02-04T01:00:02;3.00;;;2.17;;
9034;SDS011;4552;43.422;24.592;2024-02-04T01:02:30;2.73;;;2.40;;
9034;SDS011;4552;43.422;24.592;2024-02-04T01:14:40;3.00;;;2.57;;
9034;SDS011;4552;43.422;24.592;2024-02-04T01:17:07;2.93;;;2.20;;
9034;SDS011;4552;43.422;24.592;2024-02-04T01:19:33;3.70;;;2.80;;
9034;SDS011;4552;43.422;24.592;2024-02-04T01:22:00;3.57;;;2.77;;
9034;SDS011;4552;43.422;24.592;2024-02-04T01:24:27;3.37;;;2.17;;
9034;SDS011;4552;43.422;24.592;2024-02-04T01:26:56;4.73;;;2.43;;
9034;SDS011;4552;43.422;24.592;2024-02-04T01:29:24;3.10;;;2.50;;
9034;SDS011;4552;43.422;24.592;2024-02-04T01:31:51;2.77;;;2.47;;
9034;SDS011;4552;43.422;24.592;2024-02-04T01:34:19;2.90;;;2.47;;
9034;SDS011;4552;43.422;24.592;2024-02-04T01:36:46;2.30;;;2.10;;
9034;SDS011;4552;43.422;24.592;2024-02-04T01:39:13;3.43;;;2.00;;
9034;SDS011;4552;43.422;24.592;2024-02-04T01:41:40;2.60;;;2.07;;
9034;SDS011;4552;43.422;24.592;2024-02-04T01:44:10;5.70;;;2.23;;
9034;SDS011;4552;43.422;24.592;2024-02-04T01:46:38;2.30;;;2.10;;
9034;SDS011;4552;43.422;24.592;2024-02-04T01:49:06;2.73;;;1.87;;
9034;SDS011;4552;43.422;24.592;2024-02-04T01:51:33;2.53;;;2.33;;
9034;SDS011;4552;43.422;24.592;2024-02-04T01:54:00;3.20;;;2.47;;
9034;SDS011;4552;43.422;24.592;2024-02-04T01:56:28;2.50;;;2.20;;
9034;SDS011;4552;43.422;24.592;2024-02-04T01:58:56;3.03;;;2.57;;
9034;SDS011;4552;43.422;24.592;2024-02-04T02:01:24;2.27;;;1.90;;
9034;SDS011;4552;43.422;24.592;2024-02-04T02:10:37;2.40;;;2.20;;
9034;SDS011;4552;43.422;24.592;2024-02-04T02:13:09;4.33;;;2.20;;
9034;SDS011;4552;43.422;24.592;2024-02-04T02:15:43;4.63;;;2.50;;
9034;SDS011;4552;43.422;24.592;2024-02-04T02:55:15;2.60;;;2.40;;
9034;SDS011;4552;43.422;24.592;2024-02-04T02:57:42;3.73;;;2.80;;
9034;SDS011;4552;43.422;24.592;2024-02-04T03:00:10;3.37;;;2.30;;
9034;SDS011;4552;43.422;24.592;2024-02-04T03:02:38;2.53;;;2.23;;
9034;SDS011;4552;43.422;24.592;2024-02-04T03:05:05;2.70;;;2.13;;
9034;SDS011;4552;43.422;24.592;2024-02-04T03:07:32;2.83;;;2.50;;
9034;SDS011;4552;43.422;24.592;2024-02-04T03:09:59;2.73;;;2.20;;
9034;SDS011;4552;43.422;24.592;2024-02-04T03:12:27;3.97;;;2.27;;
9034;SDS011;4552;43.422;24.592;2024-02-04T03:14:54;3.00;;;2.17;;
9034;SDS011;4552;43.422;24.592;2024-02-04T03:17:21;3.23;;;2.40;;
9034;SDS011;4552;43.422;24.592;2024-02-04T04:47:21;3.17;;;2.07;;
9034;SDS011;4552;43.422;24.592;2024-02-04T04:49:48;2.37;;;2.03;;
9034;SDS011;4552;43.422;24.592;2024-02-04T04:52:16;3.00;;;2.70;;
9034;SDS011;4552;43.422;24.592;2024-02-04T04:54:43;3.70;;;2.33;;
9034;SDS011;4552;43.422;24.592;2024-02-04T04:57:10;3.20;;;2.60;;
9034;SDS011;4552;43.422;24.592;2024-02-04T04:59:37;2.97;;;2.40;;
9034;SDS011;4552;43.422;24.592;2024-02-04T05:02:04;3.53;;;2.30;;
9034;SDS011;4552;43.422;24.592;2024-02-04T08:44:09;2.53;;;2.33;;
9034;SDS011;4552;43.422;24.592;2024-02-04T08:46:36;3.17;;;2.73;;
9034;SDS011;4552;43.422;24.592;2024-02-04T09:19:10;2.87;;;2.30;;
9034;SDS011;4552;43.422;24.592;2024-02-04T09:21:37;2.90;;;2.53;;
9034;SDS011;4552;43.422;24.592;2024-02-04T09:24:04;7.73;;;3.00;;
9034;SDS011;4552;43.422;24.592;2024-02-04T09:26:32;2.87;;;2.67;;
9034;SDS011;4552;43.422;24.592;2024-02-04T09:29:06;2.43;;;2.17;;
9034;SDS011;4552;43.422;24.592;2024-02-04T09:31:33;3.72;;;2.85;;
9034;SDS011;4552;43.422;24.592;2024-02-04T09:34:02;3.53;;;2.80;;
9034;SDS011;4552;43.422;24.592;2024-02-04T09:36:30;2.80;;;2.20;;
9034;SDS011;4552;43.422;24.592;2024-02-04T09:38:58;2.43;;;2.10;;
9034;SDS011;4552;43.422;24.592;2024-02-04T09:41:25;2.97;;;2.50;;
9034;SDS011;4552;43.422;24.592;2024-02-04T09:43:53;2.43;;;2.23;;
9034;SDS011;4552;43.422;24.592;2024-02-04T09:46:20;2.97;;;2.17;;
9034;SDS011;4552;43.422;24.592;2024-02-04T10:46:23;2.40;;;2.00;;
9034;SDS011;4552;43.422;24.592;2024-02-04T10:48:57;4.03;;;2.60;;
9034;SDS011;4552;43.422;24.592;2024-02-04T10:51:31;2.43;;;2.07;;
9034;SDS011;4552;43.422;24.592;2024-02-04T10:54:02;2.23;;;1.90;;
9034;SDS011;4552;43.422;24.592;2024-02-04T10:56:36;2.07;;;1.87;;
9034;SDS011;4552;43.422;24.592;2024-02-04T10:59:08;5.50;;;2.80;;
9034;SDS011;4552;43.422;24.592;2024-02-04T11:01:37;2.20;;;1.90;;
9034;SDS011;4552;43.422;24.592;2024-02-04T11:04:05;2.63;;;2.30;;
9034;SDS011;4552;43.422;24.592;2024-02-04T11:06:34;2.20;;;1.90;;
9034;SDS011;4552;43.422;24.592;2024-02-04T11:09:03;2.73;;;2.30;;
9034;SDS011;4552;43.422;24.592;2024-02-04T11:11:31;2.87;;;2.10;;
9034;SDS011;4552;43.422;24.592;2024-02-04T11:14:00;2.10;;;1.90;;
9034;SDS011;4552;43.422;24.592;2024-02-04T11:16:33;2.63;;;1.93;;
9034;SDS011;4552;43.422;24.592;2024-02-04T11:19:20;2.20;;;2.00;;
9034;SDS011;4552;43.422;24.592;2024-02-04T11:22:00;2.77;;;1.87;;
9034;SDS011;4552;43.422;24.592;2024-02-04T11:24:52;2.00;;;1.80;;
9034;SDS011;4552;43.422;24.592;2024-02-04T11:27:28;2.77;;;2.00;;
9034;SDS011;4552;43.422;24.592;2024-02-04T11:29:56;2.13;;;1.93;;
9034;SDS011;4552;43.422;24.592;2024-02-04T11:32:25;4.73;;;3.10;;
9034;SDS011;4552;43.422;24.592;2024-02-04T11:58:35;3.57;;;1.70;;
9034;SDS011;4552;43.422;24.592;2024-02-04T12:01:02;2.20;;;1.80;;
9034;SDS011;4552;43.422;24.592;2024-02-04T12:03:30;2.07;;;1.73;;
9034;SDS011;4552;43.422;24.592;2024-02-04T12:05:57;2.50;;;1.70;;
9034;SDS011;4552;43.422;24.592;2024-02-04T12:08:24;1.93;;;1.77;;
9034;SDS011;4552;43.422;24.592;2024-02-04T12:10:54;4.43;;;1.70;;
9034;SDS011;4552;43.422;24.592;2024-02-04T12:13:21;6.23;;;4.93;;
9034;SDS011;4552;43.422;24.592;2024-02-04T12:15:50;1.83;;;1.67;;
9034;SDS011;4552;43.422;24.592;2024-02-04T12:18:17;3.07;;;2.27;;
9034;SDS011;4552;43.422;24.592;2024-02-04T12:20:45;4.40;;;1.60;;
9034;SDS011;4552;43.422;24.592;2024-02-04T12:23:13;1.70;;;1.43;;
9034;SDS011;4552;43.422;24.592;2024-02-04T12:25:41;1.70;;;1.60;;
9034;SDS011;4552;43.422;24.592;2024-02-04T12:28:08;3.30;;;1.60;;
9034;SDS011;4552;43.422;24.592;2024-02-04T12:30:35;1.53;;;1.43;;
9034;SDS011;4552;43.422;24.592;2024-02-04T12:33:05;1.50;;;1.40;;
9034;SDS011;4552;43.422;24.592;2024-02-04T12:35:34;4.63;;;1.80;;
9034;SDS011;4552;43.422;24.592;2024-02-04T12:38:01;1.60;;;1.50;;
9034;SDS011;4552;43.422;24.592;2024-02-04T12:40:29;2.00;;;1.50;;
9034;SDS011;4552;43.422;24.592;2024-02-04T12:42:56;4.63;;;1.57;;
9034;SDS011;4552;43.422;24.592;2024-02-04T12:45:25;2.10;;;1.67;;
9034;SDS011;4552;43.422;24.592;2024-02-04T12:47:52;1.70;;;1.60;;
9034;SDS011;4552;43.422;24.592;2024-02-04T12:50:23;4.63;;;1.40;;
9034;SDS011;4552;43.422;24.592;2024-02-04T12:53:01;1.83;;;1.50;;
9034;SDS011;4552;43.422;24.592;2024-02-04T12:55:29;1.50;;;1.40;;
9034;SDS011;4552;43.422;24.592;2024-02-04T12:58:03;1.40;;;1.30;;
9034;SDS011;4552;43.422;24.592;2024-02-04T13:00:31;1.80;;;1.53;;
9034;SDS011;4552;43.422;24.592;2024-02-04T13:02:58;1.40;;;1.30;;
9034;SDS011;4552;43.422;24.592;2024-02-04T13:05:37;1.70;;;1.60;;
9034;SDS011;4552;43.422;24.592;2024-02-04T13:08:13;1.43;;;1.33;;
9034;SDS011;4552;43.422;24.592;2024-02-04T13:10:53;1.30;;;1.20;;
9034;SDS011;4552;43.422;24.592;2024-02-04T13:19:40;1.60;;;1.50;;
9034;SDS011;4552;43.422;24.592;2024-02-04T13:22:11;1.77;;;1.20;;
9034;SDS011;4552;43.422;24.592;2024-02-04T13:24:41;1.50;;;1.40;;
9034;SDS011;4552;43.422;24.592;2024-02-04T13:27:07;1.80;;;1.70;;
9034;SDS011;4552;43.422;24.592;2024-02-04T13:29:35;1.70;;;1.60;;
9034;SDS011;4552;43.422;24.592;2024-02-04T13:32:16;1.70;;;1.60;;
9034;SDS011;4552;43.422;24.592;2024-02-04T13:34:43;1.60;;;1.50;;
9034;SDS011;4552;43.422;24.592;2024-02-04T13:37:16;1.50;;;1.40;;
9034;SDS011;4552;43.422;24.592;2024-02-04T13:39:54;1.83;;;1.57;;
9034;SDS011;4552;43.422;24.592;2024-02-04T13:42:26;1.83;;;1.60;;
9034;SDS011;4552;43.422;24.592;2024-02-04T13:45:21;17.30;;;16.30;;
9034;SDS011;4552;43.422;24.592;2024-02-04T13:47:48;17.63;;;16.53;;
9034;SDS011;4552;43.422;24.592;2024-02-04T13:50:15;17.57;;;16.37;;
9034;SDS011;4552;43.422;24.592;2024-02-04T13:52:44;16.37;;;15.40;;
9034;SDS011;4552;43.422;24.592;2024-02-04T13:55:11;16.53;;;15.53;;
9034;SDS011;4552;43.422;24.592;2024-02-04T13:57:38;16.97;;;15.97;;
9034;SDS011;4552;43.422;24.592;2024-02-04T14:00:32;16.60;;;15.50;;
9034;SDS011;4552;43.422;24.592;2024-02-04T14:03:16;17.20;;;15.97;;
9034;SDS011;4552;43.422;24.592;2024-02-04T14:05:45;16.60;;;15.60;;
9034;SDS011;4552;43.422;24.592;2024-02-04T14:08:13;15.97;;;15.07;;
9034;SDS011;4552;43.422;24.592;2024-02-04T14:10:40;16.00;;;15.10;;
9034;SDS011;4552;43.422;24.592;2024-02-04T14:13:07;3.23;;;3.03;;
9034;SDS011;4552;43.422;24.592;2024-02-04T14:15:36;3.67;;;3.47;;
9034;SDS011;4552;43.422;24.592;2024-02-04T16:39:22;1.20;;;1.20;;
9034;SDS011;4552;43.422;24.592;2024-02-04T16:41:51;1.40;;;1.30;;
9034;SDS011;4552;43.422;24.592;2024-02-04T16:44:18;1.50;;;1.40;;
9034;SDS011;4552;43.422;24.592;2024-02-04T16:46:46;1.50;;;1.40;;
9034;SDS011;4552;43.422;24.592;2024-02-04T16:49:13;1.73;;;1.60;;
9034;SDS011;4552;43.422;24.592;2024-02-04T16:51:40;1.80;;;1.60;;
9034;SDS011;4552;43.422;24.592;2024-02-04T16:54:07;1.70;;;1.60;;
9034;SDS011;4552;43.422;24.592;2024-02-04T16:56:37;4.10;;;1.90;;
9034;SDS011;4552;43.422;24.592;2024-02-04T16:59:05;3.17;;;1.60;;
9034;SDS011;4552;43.422;24.592;2024-02-04T17:01:34;2.20;;;1.73;;
9034;SDS011;4552;43.422;24.592;2024-02-04T17:04:01;1.60;;;1.50;;
9034;SDS011;4552;43.422;24.592;2024-02-04T18:14:06;2.20;;;2.00;;
9034;SDS011;4552;43.422;24.592;2024-02-04T18:16:33;2.10;;;1.80;;
9034;SDS011;4552;43.422;24.592;2024-02-04T18:19:05;2.40;;;2.00;;
9034;SDS011;4552;43.422;24.592;2024-02-04T18:25:02;4.03;;;2.00;;
9034;SDS011;4552;43.422;24.592;2024-02-04T18:27:30;2.63;;;2.10;;
9034;SDS011;4552;43.422;24.592;2024-02-04T18:30:00;2.83;;;2.27;;
9034;SDS011;4552;43.422;24.592;2024-02-04T18:32:28;2.20;;;1.70;;
9034;SDS011;4552;43.422;24.592;2024-02-04T18:34:55;3.23;;;2.30;;
9034;SDS011;4552;43.422;24.592;2024-02-04T18:37:22;3.40;;;1.80;;
9034;SDS011;4552;43.422;24.592;2024-02-04T18:39:49;2.57;;;2.37;;
9034;SDS011;4552;43.422;24.592;2024-02-04T18:42:17;2.37;;;2.07;;
9034;SDS011;4552;43.422;24.592;2024-02-04T18:44:47;2.40;;;2.20;;
9034;SDS011;4552;43.422;24.592;2024-02-04T18:47:16;2.77;;;2.00;;
9034;SDS011;4552;43.422;24.592;2024-02-04T19:04:00;2.07;;;1.80;;
9034;SDS011;4552;43.422;24.592;2024-02-04T19:06:28;1.90;;;1.70;;
9034;SDS011;4552;43.422;24.592;2024-02-04T19:08:55;2.90;;;2.20;;
9034;SDS011;4552;43.422;24.592;2024-02-04T19:11:23;2.67;;;2.13;;
9034;SDS011;4552;43.422;24.592;2024-02-04T19:13:50;2.47;;;2.20;;
9034;SDS011;4552;43.422;24.592;2024-02-04T19:16:21;1.93;;;1.83;;
9034;SDS011;4552;43.422;24.592;2024-02-04T19:18:48;2.93;;;2.07;;
9034;SDS011;4552;43.422;24.592;2024-02-04T19:21:17;2.17;;;1.93;;
9034;SDS011;4552;43.422;24.592;2024-02-04T19:23:44;3.37;;;2.07;;
9034;SDS011;4552;43.422;24.592;2024-02-04T19:26:17;2.73;;;2.00;;
9034;SDS011;4552;43.422;24.592;2024-02-04T19:29:08;1.67;;;1.57;;
9034;SDS011;4552;43.422;24.592;2024-02-04T19:31:38;3.43;;;2.10;;
9034;SDS011;4552;43.422;24.592;2024-02-04T19:34:08;3.63;;;2.00;;
9034;SDS011;4552;43.422;24.592;2024-02-04T19:37:03;3.30;;;2.10;;
9034;SDS011;4552;43.422;24.592;2024-02-04T19:39:48;2.33;;;1.90;;
9034;SDS011;4552;43.422;24.592;2024-02-04T19:42:20;3.13;;;2.30;;
9034;SDS011;4552;43.422;24.592;2024-02-04T19:44:49;3.60;;;1.80;;
9034;SDS011;4552;43.422;24.592;2024-02-04T19:47:25;2.17;;;1.93;;
9034;SDS011;4552;43.422;24.592;2024-02-04T19:50:17;2.83;;;2.13;;
9034;SDS011;4552;43.422;24.592;2024-02-04T19:52:52;3.33;;;2.03;;
9034;SDS011;4552;43.422;24.592;2024-02-04T19:55:19;4.17;;;2.47;;
9034;SDS011;4552;43.422;24.592;2024-02-04T19:57:52;3.00;;;2.17;;
9034;SDS011;4552;43.422;24.592;2024-02-04T20:00:19;2.83;;;2.37;;
9034;SDS011;4552;43.422;24.592;2024-02-04T20:12:52;2.63;;;2.30;;
9034;SDS011;4552;43.422;24.592;2024-02-04T20:15:22;2.10;;;1.90;;
9034;SDS011;4552;43.422;24.592;2024-02-04T20:17:51;2.30;;;2.10;;
9034;SDS011;4552;43.422;24.592;2024-02-04T20:20:20;3.23;;;2.37;;
9034;SDS011;4552;43.422;24.592;2024-02-04T20:22:49;2.93;;;2.10;;
9034;SDS011;4552;43.422;24.592;2024-02-04T20:25:19;2.47;;;2.10;;
9034;SDS011;4552;43.422;24.592;2024-02-04T20:27:48;2.73;;;2.17;;
9034;SDS011;4552;43.422;24.592;2024-02-04T20:30:17;4.40;;;2.37;;
9034;SDS011;4552;43.422;24.592;2024-02-04T20:32:44;2.43;;;2.20;;
9034;SDS011;4552;43.422;24.592;2024-02-04T21:33:53;4.13;;;2.20;;
9034;SDS011;4552;43.422;24.592;2024-02-04T22:03:15;2.07;;;1.87;;
9034;SDS011;4552;43.422;24.592;2024-02-04T22:42:43;2.17;;;1.97;;
9034;SDS011;4552;43.422;24.592;2024-02-04T22:45:10;3.17;;;2.17;;
9034;SDS011;4552;43.422;24.592;2024-02-04T22:47:38;1.80;;;1.70;;
9034;SDS011;4552;43.422;24.592;2024-02-04T23:27:02;2.70;;;1.53;;
9034;SDS011;4552;43.422;24.592;2024-02-04T23:29:30;2.20;;;1.40;;
9034;SDS011;4552;43.422;24.592;2024-02-04T23:31:59;1.60;;;1.30;;
9034;SDS011;4552;43.422;24.592;2024-02-04T23:34:26;1.63;;;1.50;;
9034;SDS011;4552;43.422;24.592;2024-02-04T23:43:42;1.80;;;1.37;;
9034;SDS011;4552;43.422;24.592;2024-02-04T23:46:11;1.60;;;1.50;;
9034;SDS011;4552;43.422;24.592;2024-02-04T23:48:39;1.60;;;1.50;;
9034;SDS011;4552;43.422;24.592;2024-02-04T23:51:07;1.20;;;1.20;;
9034;SDS011;4552;43.422;24.592;2024-02-04T23:53:34;1.40;;;1.30;;
9034;SDS011;4552;43.422;24.592;2024-02-04T23:56:01;1.50;;;1.40;;
9034;SDS011;4552;43.422;24.592;2024-02-04T23:58:28;1.47;;;1.33;;
